createdAt,value
2018-08-09T00:01:16.235Z,26.48
2018-08-09T00:03:42.187Z,26.49
2018-08-09T00:06:08.176Z,26.52
2018-08-09T00:08:34.139Z,26.55
2018-08-09T00:11:00.136Z,26.51
2018-08-09T00:13:26.111Z,26.46
2018-08-09T00:15:52.156Z,26.47
2018-08-09T00:18:18.195Z,26.46
2018-08-09T00:20:44.162Z,26.46
2018-08-09T00:23:10.120Z,26.40
2018-08-09T00:25:36.109Z,26.49
2018-08-09T00:28:02.071Z,26.50
2018-08-09T00:30:28.063Z,26.45
2018-08-09T00:32:54.079Z,26.46
2018-08-09T00:35:20.037Z,26.49
2018-08-09T00:37:46.048Z,26.52
2018-08-09T00:40:12.016Z,26.51
2018-08-09T00:42:37.974Z,26.48
2018-08-09T00:45:03.955Z,26.51
2018-08-09T00:47:29.931Z,26.52
2018-08-09T00:49:55.898Z,26.48
2018-08-09T00:52:21.907Z,26.49
2018-08-09T00:54:47.933Z,26.54
2018-08-09T00:57:13.893Z,26.53
2018-08-09T00:59:39.839Z,26.54
2018-08-09T01:02:05.860Z,26.49
2018-08-09T01:04:31.847Z,26.51
2018-08-09T01:06:57.809Z,26.50
2018-08-09T01:09:23.895Z,26.51
2018-08-09T01:11:49.860Z,26.52
2018-08-09T01:14:15.824Z,26.53
2018-08-09T01:16:41.779Z,26.55
2018-08-09T01:19:07.761Z,26.53
2018-08-09T01:21:33.764Z,26.56
2018-08-09T01:23:59.719Z,26.55
2018-08-09T01:26:25.731Z,26.54
2018-08-09T01:28:51.740Z,26.54
2018-08-09T01:31:18.752Z,26.52
2018-08-09T01:33:44.745Z,26.52
2018-08-09T01:36:10.723Z,26.51
2018-08-09T01:38:36.719Z,26.48
2018-08-09T01:41:02.684Z,26.53
2018-08-09T01:43:28.670Z,26.52
2018-08-09T01:45:54.676Z,26.49
2018-08-09T01:48:20.649Z,26.52
2018-08-09T01:50:46.678Z,26.51
2018-08-09T01:53:12.687Z,26.49
2018-08-09T01:55:38.659Z,26.54
2018-08-09T01:58:04.616Z,26.52
2018-08-09T02:00:30.586Z,26.57
2018-08-09T02:02:56.543Z,26.52
2018-08-09T02:05:22.534Z,26.52
2018-08-09T02:07:48.498Z,26.52
2018-08-09T02:10:14.461Z,26.54
2018-08-09T02:12:40.415Z,26.52
2018-08-09T02:15:06.384Z,26.56
2018-08-09T02:17:32.363Z,26.51
2018-08-09T02:19:58.325Z,26.57
2018-08-09T02:22:24.303Z,26.55
2018-08-09T02:24:50.266Z,26.50
2018-08-09T02:27:16.253Z,26.49
2018-08-09T02:29:42.226Z,26.48
2018-08-09T02:32:08.229Z,26.49
2018-08-09T02:34:34.182Z,26.46
2018-08-09T02:37:00.181Z,26.46
2018-08-09T02:39:26.167Z,26.50
2018-08-09T02:41:52.131Z,26.52
2018-08-09T02:44:18.187Z,26.46
2018-08-09T02:46:44.177Z,26.50
2018-08-09T02:49:10.112Z,26.54
2018-08-09T02:51:36.091Z,26.54
2018-08-09T02:54:02.114Z,26.47
2018-08-09T02:56:28.082Z,26.47
2018-08-09T02:58:54.053Z,26.48
2018-08-09T03:01:20.027Z,26.45
2018-08-09T03:03:46.051Z,26.45
2018-08-09T03:06:12.044Z,26.41
2018-08-09T03:08:38.040Z,26.42
2018-08-09T03:11:04.017Z,26.47
2018-08-09T03:13:29.972Z,26.47
2018-08-09T03:15:55.947Z,26.44
2018-08-09T03:18:21.964Z,26.50
2018-08-09T03:20:47.908Z,26.44
2018-08-09T03:23:13.881Z,26.50
2018-08-09T03:25:39.843Z,26.45
2018-08-09T03:28:05.845Z,26.49
2018-08-09T03:30:31.801Z,26.47
2018-08-09T03:32:57.817Z,26.45
2018-08-09T03:35:23.772Z,26.47
2018-08-09T03:37:49.726Z,26.43
2018-08-09T03:40:15.683Z,26.46
2018-08-09T03:42:41.635Z,26.46
2018-08-09T03:45:07.636Z,26.42
2018-08-09T03:47:34.627Z,26.43
2018-08-09T03:50:00.590Z,26.40
2018-08-09T03:52:26.557Z,26.41
2018-08-09T03:54:52.522Z,26.44
2018-08-09T03:57:18.525Z,26.44
2018-08-09T03:59:44.523Z,26.43
2018-08-09T04:02:10.474Z,26.44
2018-08-09T04:04:36.442Z,26.46
2018-08-09T04:07:02.420Z,26.47
2018-08-09T04:09:28.383Z,26.43
2018-08-09T04:11:54.407Z,26.42
2018-08-09T04:14:20.324Z,26.44
2018-08-09T04:16:46.319Z,26.49
2018-08-09T04:19:12.283Z,26.46
2018-08-09T04:21:38.239Z,26.45
2018-08-09T04:24:04.209Z,26.42
2018-08-09T04:26:30.173Z,26.44
2018-08-09T04:28:56.133Z,26.43
2018-08-09T04:31:22.091Z,26.42
2018-08-09T04:33:48.064Z,26.46
2018-08-09T04:36:14.011Z,26.47
2018-08-09T04:38:40.018Z,26.43
2018-08-09T04:41:05.977Z,26.46
2018-08-09T04:43:31.971Z,26.46
2018-08-09T04:45:57.957Z,26.43
2018-08-09T04:48:23.919Z,26.42
2018-08-09T04:50:49.872Z,26.45
2018-08-09T04:53:15.835Z,26.40
2018-08-09T04:55:41.828Z,26.41
2018-08-09T04:58:07.832Z,26.41
2018-08-09T05:00:33.764Z,26.45
2018-08-09T05:02:59.725Z,26.43
2018-08-09T05:05:25.690Z,26.44
2018-08-09T05:07:51.660Z,26.41
2018-08-09T05:10:17.637Z,26.41
2018-08-09T05:12:43.584Z,26.38
2018-08-09T05:15:09.569Z,26.39
2018-08-09T05:17:35.556Z,26.43
2018-08-09T05:20:01.545Z,26.43
2018-08-09T05:22:27.499Z,26.44
2018-08-09T05:24:53.471Z,26.41
2018-08-09T05:27:19.441Z,26.41
2018-08-09T05:29:45.408Z,26.43
2018-08-09T05:32:11.368Z,26.44
2018-08-09T05:34:37.349Z,26.40
2018-08-09T05:37:03.322Z,26.42
2018-08-09T05:39:30.305Z,26.44
2018-08-09T05:41:56.272Z,26.41
2018-08-09T05:44:22.264Z,26.48
2018-08-09T05:46:48.231Z,26.41
2018-08-09T05:49:14.203Z,26.39
2018-08-09T05:51:40.159Z,26.37
2018-08-09T05:54:06.117Z,26.42
2018-08-09T05:56:32.072Z,26.43
2018-08-09T05:58:58.035Z,26.48
2018-08-09T06:01:24.010Z,26.46
2018-08-09T06:03:49.980Z,26.47
2018-08-09T06:06:15.988Z,26.46
2018-08-09T06:08:41.919Z,26.48
2018-08-09T06:11:07.914Z,26.47
2018-08-09T06:13:33.945Z,26.41
2018-08-09T06:15:59.843Z,26.42
2018-08-09T06:18:25.793Z,26.59
2018-08-09T06:20:51.785Z,26.48
2018-08-09T06:23:17.776Z,26.43
2018-08-09T06:25:43.745Z,26.42
2018-08-09T06:28:09.804Z,26.48
2018-08-09T06:30:35.912Z,26.42
2018-08-09T06:33:01.878Z,26.39
2018-08-09T06:35:27.915Z,26.40
2018-08-09T06:37:53.881Z,26.52
2018-08-09T06:40:19.876Z,26.66
2018-08-09T06:42:45.912Z,26.47
2018-08-09T06:45:11.889Z,26.66
2018-08-09T06:47:37.870Z,26.49
2018-08-09T06:50:03.812Z,26.42
2018-08-09T06:52:29.761Z,26.45
2018-08-09T06:54:55.747Z,26.49
2018-08-09T06:57:21.699Z,26.50
2018-08-09T06:59:47.666Z,26.52
2018-08-09T07:02:13.653Z,26.49
2018-08-09T07:04:39.613Z,26.47
2018-08-09T07:07:05.605Z,26.51
2018-08-09T07:09:31.553Z,26.51
2018-08-09T07:11:57.540Z,26.51
2018-08-09T07:14:23.508Z,26.52
2018-08-09T07:16:49.472Z,26.50
2018-08-09T07:19:15.419Z,26.52
2018-08-09T07:21:41.394Z,26.54
2018-08-09T07:24:07.352Z,26.50
2018-08-09T07:26:33.368Z,26.50
2018-08-09T07:28:59.268Z,26.52
2018-08-09T07:31:25.230Z,26.51
2018-08-09T07:33:51.215Z,26.55
2018-08-09T07:36:17.179Z,26.59
2018-08-09T07:38:43.389Z,26.63
2018-08-09T07:41:09.351Z,26.58
2018-08-09T07:43:35.383Z,26.56
2018-08-09T07:46:01.365Z,26.59
2018-08-09T07:48:27.374Z,26.63
2018-08-09T07:50:53.287Z,26.57
2018-08-09T07:53:19.234Z,26.58
2018-08-09T07:55:45.209Z,26.64
2018-08-09T07:58:11.175Z,26.57
2018-08-09T08:00:37.132Z,26.64
2018-08-09T08:03:03.125Z,26.59
2018-08-09T08:05:29.100Z,26.59
2018-08-09T08:07:55.169Z,26.58
2018-08-09T08:10:21.182Z,26.62
2018-08-09T08:12:47.153Z,26.61
2018-08-09T08:15:13.117Z,26.59
2018-08-09T08:17:39.094Z,26.80
2018-08-09T08:20:05.079Z,26.65
2018-08-09T08:22:31.054Z,26.60
2018-08-09T08:24:58.044Z,26.64
2018-08-09T08:27:24.003Z,26.62
2018-08-09T08:29:49.981Z,26.64
2018-08-09T08:32:16.059Z,26.64
2018-08-09T08:34:42.081Z,26.68
2018-08-09T08:37:07.995Z,26.65
2018-08-09T08:39:34.066Z,26.67
2018-08-09T08:42:00.040Z,26.66
2018-08-09T08:44:26.044Z,26.66
2018-08-09T08:46:52.011Z,26.70
2018-08-09T08:49:17.992Z,26.69
2018-08-09T08:51:43.972Z,26.70
2018-08-09T08:54:09.960Z,26.70
2018-08-09T08:56:36.065Z,26.60
2018-08-09T08:59:02.026Z,26.64
2018-08-09T09:01:28.017Z,26.60
2018-08-09T09:03:54.016Z,26.86
2018-08-09T09:06:20.072Z,26.85
2018-08-09T09:08:46.114Z,26.67
2018-08-09T09:11:12.092Z,26.61
2018-08-09T09:13:38.174Z,26.64
2018-08-09T09:16:04.160Z,26.68
2018-08-09T09:18:30.142Z,26.73
2018-08-09T09:20:56.170Z,26.80
2018-08-09T09:23:22.181Z,26.76
2018-08-09T09:25:48.127Z,26.78
2018-08-09T09:28:14.103Z,26.85
2018-08-09T09:30:40.075Z,27.11
2018-08-09T09:33:06.059Z,26.93
2018-08-09T09:35:32.012Z,26.84
2018-08-09T09:37:57.993Z,26.87
2018-08-09T09:40:24.999Z,26.85
2018-08-09T09:42:50.956Z,26.89
2018-08-09T09:45:17.052Z,26.89
2018-08-09T09:47:43.019Z,26.89
2018-08-09T09:50:09.014Z,26.92
2018-08-09T09:52:34.979Z,27.01
2018-08-09T09:55:00.971Z,26.94
2018-08-09T09:57:26.919Z,26.99
2018-08-09T09:59:53.029Z,26.99
2018-08-09T10:02:19.135Z,26.93
2018-08-09T10:04:45.119Z,26.94
2018-08-09T10:07:11.170Z,26.98
2018-08-09T10:09:37.077Z,27.05
2018-08-09T10:12:03.050Z,27.02
2018-08-09T10:14:29.036Z,26.99
2018-08-09T10:16:54.998Z,26.92
2018-08-09T10:19:20.969Z,26.88
2018-08-09T10:21:46.940Z,26.88
2018-08-09T10:24:12.927Z,26.91
2018-08-09T10:26:38.939Z,26.99
2018-08-09T10:29:04.960Z,26.97
2018-08-09T10:31:30.956Z,26.97
2018-08-09T10:33:56.916Z,26.97
2018-08-09T10:36:22.875Z,27.07
2018-08-09T10:38:48.835Z,26.96
2018-08-09T10:41:14.923Z,26.98
2018-08-09T10:43:40.898Z,27.08
2018-08-09T10:46:06.878Z,26.97
2018-08-09T10:48:32.875Z,26.93
2018-08-09T10:50:58.844Z,27.04
2018-08-09T10:53:24.819Z,26.94
2018-08-09T10:55:50.790Z,27.32
2018-08-09T10:58:16.779Z,27.70
2018-08-09T11:00:42.750Z,27.48
2018-08-09T11:03:09.875Z,27.46
2018-08-09T11:05:35.911Z,27.10
2018-08-09T11:08:02.961Z,27.08
2018-08-09T11:10:28.996Z,27.05
2018-08-09T11:12:54.981Z,26.94
2018-08-09T11:15:21.042Z,27.06
2018-08-09T11:17:47.032Z,27.04
2018-08-09T11:20:13.016Z,27.25
2018-08-09T11:22:39.034Z,27.15
2018-08-09T11:25:04.996Z,27.41
2018-08-09T11:27:30.968Z,27.40
2018-08-09T11:29:57.009Z,27.20
2018-08-09T11:32:23.077Z,27.10
2018-08-09T11:34:49.098Z,27.08
2018-08-09T11:37:15.130Z,27.09
2018-08-09T11:39:41.114Z,27.26
2018-08-09T11:42:07.072Z,27.16
2018-08-09T11:44:33.065Z,27.14
2018-08-09T11:46:59.063Z,27.03
2018-08-09T11:49:25.073Z,27.43
2018-08-09T11:51:51.017Z,27.07
2018-08-09T11:54:17.000Z,27.03
2018-08-09T11:56:43.088Z,27.02
2018-08-09T11:59:08.977Z,27.05
2018-08-09T12:01:35.005Z,27.06
2018-08-09T12:04:00.907Z,27.25
2018-08-09T12:06:26.880Z,27.19
2018-08-09T12:08:52.864Z,27.24
2018-08-09T12:11:18.835Z,27.43
2018-08-09T12:13:44.785Z,27.14
2018-08-09T12:16:10.773Z,27.09
2018-08-09T12:18:36.743Z,27.22
2018-08-09T12:21:02.730Z,27.19
2018-08-09T12:23:28.704Z,27.30
2018-08-09T12:25:54.772Z,27.21
2018-08-09T12:28:20.740Z,27.35
2018-08-09T12:30:46.697Z,27.46
2018-08-09T12:33:12.723Z,27.62
2018-08-09T12:35:38.630Z,27.27
2018-08-09T12:38:04.603Z,27.49
2018-08-09T12:40:30.579Z,27.26
2018-08-09T12:42:56.581Z,27.14
2018-08-09T12:45:22.625Z,27.19
2018-08-09T12:47:48.622Z,27.13
2018-08-09T12:50:14.664Z,27.16
2018-08-09T12:52:40.627Z,27.11
2018-08-09T12:55:06.583Z,27.27
2018-08-09T12:57:32.551Z,27.45
2018-08-09T12:59:58.532Z,27.22
2018-08-09T13:02:24.483Z,27.29
2018-08-09T13:04:50.444Z,27.29
2018-08-09T13:07:16.399Z,27.35
2018-08-09T13:09:42.356Z,27.29
2018-08-09T13:12:08.343Z,27.40
2018-08-09T13:14:35.352Z,27.34
2018-08-09T13:17:01.526Z,27.31
2018-08-09T13:19:27.485Z,27.31
2018-08-09T13:21:53.456Z,27.55
2018-08-09T13:24:19.471Z,27.56
2018-08-09T13:26:45.475Z,27.36
2018-08-09T13:29:12.455Z,27.27
2018-08-09T13:31:38.424Z,27.44
2018-08-09T13:34:04.386Z,27.21
2018-08-09T13:36:30.353Z,27.23
2018-08-09T13:38:56.316Z,27.23
2018-08-09T13:41:22.271Z,27.16
2018-08-09T13:43:48.317Z,27.27
2018-08-09T13:46:14.285Z,27.25
2018-08-09T13:48:40.288Z,27.22
2018-08-09T13:51:06.233Z,27.11
2018-08-09T13:53:32.361Z,27.18
2018-08-09T13:55:58.331Z,27.19
2018-08-09T13:58:24.311Z,27.28
2018-08-09T14:00:50.287Z,27.19
2018-08-09T14:03:16.305Z,27.10
2018-08-09T14:05:42.287Z,27.23
2018-08-09T14:08:08.314Z,27.16
2018-08-09T14:10:35.325Z,27.14
2018-08-09T14:13:01.337Z,27.18
2018-08-09T14:15:27.361Z,27.22
2018-08-09T14:17:53.341Z,27.12
2018-08-09T14:20:19.297Z,27.09
2018-08-09T14:22:45.322Z,27.17
2018-08-09T14:25:11.318Z,27.13
2018-08-09T14:27:37.370Z,27.13
2018-08-09T14:30:03.415Z,27.07
2018-08-09T14:32:29.457Z,27.13
2018-08-09T14:34:55.452Z,27.08
2018-08-09T14:37:21.406Z,27.00
2018-08-09T14:39:47.356Z,27.12
2018-08-09T14:42:13.350Z,27.28
2018-08-09T14:44:39.325Z,27.16
2018-08-09T14:47:05.307Z,27.12
2018-08-09T14:49:31.259Z,27.21
2018-08-09T14:51:57.239Z,27.12
2018-08-09T14:54:23.269Z,27.15
2018-08-09T14:56:49.233Z,27.19
2018-08-09T14:59:15.190Z,27.11
2018-08-09T15:01:41.200Z,27.19
2018-08-09T15:04:07.148Z,27.19
2018-08-09T15:06:33.313Z,27.16
2018-08-09T15:08:59.285Z,27.16
2018-08-09T15:11:25.444Z,27.09
2018-08-09T15:13:51.394Z,27.12
2018-08-09T15:16:17.357Z,27.26
2018-08-09T15:18:43.356Z,27.20
2018-08-09T15:21:09.272Z,27.10
2018-08-09T15:23:35.248Z,27.09
2018-08-09T15:26:01.410Z,27.03
2018-08-09T15:28:27.548Z,27.00
2018-08-09T15:30:53.531Z,27.15
2018-08-09T15:33:19.511Z,27.07
2018-08-09T15:35:45.481Z,27.12
2018-08-09T15:38:11.464Z,27.04
2018-08-09T15:40:37.445Z,27.06
2018-08-09T15:43:03.466Z,27.10
2018-08-09T15:45:29.418Z,27.21
2018-08-09T15:47:55.437Z,27.13
2018-08-09T15:50:21.400Z,27.13
2018-08-09T15:52:47.393Z,27.11
2018-08-09T15:55:13.352Z,27.02
2018-08-09T15:57:39.315Z,27.06
2018-08-09T16:00:05.301Z,27.04
2018-08-09T16:02:31.385Z,26.94
2018-08-09T16:04:57.264Z,27.10
2018-08-09T16:07:23.300Z,27.05
2018-08-09T16:09:49.281Z,27.05
2018-08-09T16:12:15.281Z,27.13
2018-08-09T16:14:41.401Z,27.26
2018-08-09T16:17:07.353Z,27.05
2018-08-09T16:19:33.391Z,27.14
2018-08-09T16:21:59.368Z,27.01
2018-08-09T16:24:25.338Z,27.10
2018-08-09T16:26:51.317Z,27.08
2018-08-09T16:29:17.284Z,27.02
2018-08-09T16:31:43.351Z,27.14
2018-08-09T16:34:09.320Z,27.14
2018-08-09T16:36:35.281Z,27.03
2018-08-09T16:39:01.242Z,27.11
2018-08-09T16:41:27.253Z,27.19
2018-08-09T16:43:53.209Z,27.15
2018-08-09T16:46:19.202Z,27.08
2018-08-09T16:48:45.181Z,27.08
2018-08-09T16:51:11.128Z,27.09
2018-08-09T16:53:37.093Z,27.14
2018-08-09T16:56:04.114Z,27.06
2018-08-09T16:58:30.089Z,27.06
2018-08-09T17:00:56.078Z,27.11
2018-08-09T17:03:22.067Z,27.08
2018-08-09T17:05:48.041Z,27.01
2018-08-09T17:08:14.012Z,27.08
2018-08-09T17:10:39.985Z,27.04
2018-08-09T17:13:05.956Z,27.08
2018-08-09T17:15:31.964Z,27.09
2018-08-09T17:17:57.885Z,27.13
2018-08-09T17:20:23.868Z,27.24
2018-08-09T17:22:49.821Z,27.21
2018-08-09T17:25:15.791Z,27.20
2018-08-09T17:27:41.755Z,27.28
2018-08-09T17:30:07.955Z,27.32
2018-08-09T17:32:33.955Z,27.28
2018-08-09T17:34:59.916Z,27.23
2018-08-09T17:37:25.901Z,27.19
2018-08-09T17:39:51.881Z,27.22
2018-08-09T17:42:17.959Z,27.27
2018-08-09T17:44:43.913Z,27.26
2018-08-09T17:47:09.864Z,27.21
2018-08-09T17:49:35.830Z,27.26
2018-08-09T17:52:01.774Z,27.22
2018-08-09T17:54:27.756Z,27.27
2018-08-09T17:56:53.718Z,27.27
2018-08-09T17:59:19.732Z,27.24
2018-08-09T18:01:45.640Z,27.28
2018-08-09T18:04:11.604Z,27.25
2018-08-09T18:06:37.579Z,27.26
2018-08-09T18:09:03.768Z,27.25
2018-08-09T18:11:29.751Z,27.22
2018-08-09T18:13:55.701Z,27.21
2018-08-09T18:16:21.757Z,27.25
2018-08-09T18:18:47.732Z,27.22
2018-08-09T18:21:13.696Z,27.15
2018-08-09T18:23:39.665Z,27.14
2018-08-09T18:26:05.687Z,27.11
2018-08-09T18:28:31.652Z,27.14
2018-08-09T18:30:57.709Z,27.07
2018-08-09T18:33:23.669Z,27.12
2018-08-09T18:35:49.639Z,27.09
2018-08-09T18:38:15.604Z,27.13
2018-08-09T18:40:41.647Z,27.11
2018-08-09T18:43:07.638Z,26.98
2018-08-09T18:45:33.589Z,26.98
2018-08-09T18:47:59.636Z,26.96
2018-08-09T18:50:25.621Z,26.93
2018-08-09T18:52:51.601Z,26.96
2018-08-09T18:55:17.580Z,27.02
2018-08-09T18:57:43.547Z,26.97
2018-08-09T19:00:10.575Z,26.94
2018-08-09T19:02:36.588Z,26.92
2018-08-09T19:05:02.564Z,26.91
2018-08-09T19:07:28.566Z,26.92
2018-08-09T19:09:54.492Z,26.87
2018-08-09T19:12:20.482Z,27.03
2018-08-09T19:14:46.547Z,27.02
2018-08-09T19:17:12.424Z,26.82
2018-08-09T19:19:38.405Z,26.85
2018-08-09T19:22:04.406Z,26.81
2018-08-09T19:24:30.407Z,26.79
2018-08-09T19:26:56.466Z,26.82
2018-08-09T19:29:22.370Z,26.85
2018-08-09T19:31:48.334Z,26.79
2018-08-09T19:34:14.392Z,26.80
2018-08-09T19:36:40.341Z,26.81
2018-08-09T19:39:06.473Z,26.83
2018-08-09T19:41:32.283Z,26.77
2018-08-09T19:43:58.283Z,26.85
2018-08-09T19:46:24.240Z,26.78
2018-08-09T19:48:50.316Z,26.84
2018-08-09T19:51:16.284Z,26.78
2018-08-09T19:53:42.240Z,26.78
2018-08-09T19:56:08.205Z,26.77
2018-08-09T19:58:34.278Z,26.74
2018-08-09T20:01:00.248Z,26.83
2018-08-09T20:03:26.199Z,26.78
2018-08-09T20:05:52.241Z,26.76
2018-08-09T20:08:18.267Z,26.77
2018-08-09T20:10:44.288Z,26.82
2018-08-09T20:13:10.270Z,26.68
2018-08-09T20:15:36.268Z,26.70
2018-08-09T20:18:02.286Z,26.73
2018-08-09T20:20:28.316Z,26.69
2018-08-09T20:22:55.446Z,26.70
2018-08-09T20:25:21.407Z,26.75
2018-08-09T20:27:47.405Z,26.90
2018-08-09T20:30:13.479Z,26.78
2018-08-09T20:32:39.499Z,26.78
2018-08-09T20:35:05.521Z,26.73
2018-08-09T20:37:31.476Z,26.80
2018-08-09T20:39:57.460Z,26.80
2018-08-09T20:42:23.448Z,26.79
2018-08-09T20:44:49.408Z,26.72
2018-08-09T20:47:15.364Z,26.72
2018-08-09T20:49:41.401Z,26.76
2018-08-09T20:52:07.388Z,26.76
2018-08-09T20:54:33.376Z,26.83
2018-08-09T20:56:59.346Z,26.74
2018-08-09T20:59:25.329Z,26.69
2018-08-09T21:01:51.295Z,26.81
2018-08-09T21:04:17.243Z,26.76
2018-08-09T21:06:43.234Z,26.67
2018-08-09T21:09:09.336Z,26.67
2018-08-09T21:11:35.384Z,26.71
2018-08-09T21:14:02.330Z,26.75
2018-08-09T21:16:28.317Z,26.70
2018-08-09T21:18:54.275Z,26.67
2018-08-09T21:21:20.253Z,26.63
2018-08-09T21:23:46.312Z,26.57
2018-08-09T21:26:12.339Z,26.61
2018-08-09T21:31:10.123Z,26.70
2018-08-09T21:33:36.148Z,26.70
2018-08-09T21:36:02.179Z,26.74
2018-08-09T21:38:28.168Z,26.73
2018-08-09T21:40:54.136Z,26.68
2018-08-09T21:43:20.090Z,26.70
2018-08-09T21:45:46.080Z,26.72
2018-08-09T21:48:12.070Z,26.67
2018-08-09T21:50:38.046Z,26.69
2018-08-09T21:53:04.004Z,26.72
2018-08-09T21:55:30.080Z,26.67
2018-08-09T21:57:56.518Z,26.58
2018-08-09T22:00:22.487Z,26.65
2018-08-09T22:02:48.449Z,26.59
2018-08-09T22:05:14.429Z,26.56
2018-08-09T22:07:40.376Z,26.56
2018-08-09T22:10:06.361Z,26.57
2018-08-09T22:12:32.322Z,26.53
2018-08-09T22:14:58.328Z,26.61
2018-08-09T22:17:24.274Z,26.60
2018-08-09T22:19:50.288Z,26.59
2018-08-09T22:22:16.364Z,26.54
2018-08-09T22:24:42.338Z,26.54
2018-08-09T22:27:08.295Z,26.51
2018-08-09T22:29:34.267Z,26.53
2018-08-09T22:32:00.243Z,26.49
2018-08-09T22:34:26.275Z,26.52
2018-08-09T22:36:52.258Z,26.40
2018-08-09T22:39:18.200Z,26.48
2018-08-09T22:41:44.213Z,26.53
2018-08-09T22:44:10.194Z,26.47
2018-08-09T22:46:36.172Z,26.50
2018-08-09T22:49:02.149Z,26.51
2018-08-09T22:51:28.118Z,26.46
2018-08-09T22:53:54.116Z,26.48
2018-08-09T22:56:20.069Z,26.42
2018-08-09T22:58:46.087Z,26.46
2018-08-09T23:01:12.056Z,26.40
2018-08-09T23:03:38.161Z,26.41
2018-08-09T23:06:04.101Z,26.46
2018-08-09T23:08:30.070Z,26.39
2018-08-09T23:11:29.988Z,26.37
2018-08-09T23:13:56.109Z,26.40
2018-08-09T23:16:22.103Z,26.44
2018-08-09T23:18:48.069Z,26.36
2018-08-09T23:21:14.052Z,26.39
2018-08-09T23:23:40.020Z,26.33
2018-08-09T23:26:05.980Z,26.40
2018-08-09T23:28:31.931Z,26.34
2018-08-09T23:30:57.901Z,26.41
2018-08-09T23:33:23.856Z,26.36
2018-08-09T23:35:49.819Z,26.35
2018-08-09T23:38:15.776Z,26.34
2018-08-09T23:40:41.718Z,26.33
2018-08-09T23:43:07.714Z,26.26
2018-08-09T23:45:33.912Z,26.25
2018-08-09T23:47:59.973Z,26.27
2018-08-09T23:50:25.937Z,26.27
2018-08-09T23:52:52.890Z,26.29
2018-08-09T23:55:19.451Z,26.27
2018-08-09T23:57:45.440Z,26.30
